sensor_id;sensor_type;location;lat;lon;timestamp;P1;durP1;ratioP1;P2;durP2;ratioP2
28311;SDS011;15572;48.810;9.148;2022-08-25T08:30:40;9.85;;;7.07;;
28311;SDS011;15572;48.810;9.148;2022-08-25T08:35:36;8.43;;;6.65;;
28311;SDS011;15572;48.810;9.148;2022-08-25T08:40:33;9.90;;;7.22;;
28311;SDS011;15572;48.810;9.148;2022-08-25T08:45:37;9.18;;;6.80;;
28311;SDS011;15572;48.810;9.148;2022-08-25T08:50:44;9.63;;;7.13;;
28311;SDS011;15572;48.810;9.148;2022-08-25T08:55:47;8.88;;;6.18;;
28311;SDS011;15572;48.810;9.148;2022-08-25T09:00:49;8.45;;;6.72;;
28311;SDS011;15572;48.810;9.148;2022-08-25T09:05:50;9.27;;;6.18;;
28311;SDS011;15572;48.810;9.148;2022-08-25T09:10:54;7.65;;;5.88;;
28311;SDS011;15572;48.810;9.148;2022-08-25T09:15:59;8.77;;;6.45;;
28311;SDS011;15572;48.810;9.148;2022-08-25T09:21:23;7.68;;;5.88;;
28311;SDS011;15572;48.810;9.148;2022-08-25T09:26:28;6.68;;;5.97;;
28311;SDS011;15572;48.810;9.148;2022-08-25T09:31:32;7.40;;;6.20;;
28311;SDS011;15572;48.810;9.148;2022-08-25T09:36:32;6.80;;;5.53;;
28311;SDS011;15572;48.810;9.148;2022-08-25T09:41:41;10.05;;;5.93;;
28311;SDS011;15572;48.810;9.148;2022-08-25T09:46:42;7.13;;;6.00;;
28311;SDS011;15572;48.810;9.148;2022-08-25T09:51:51;8.30;;;5.45;;
28311;SDS011;15572;48.810;9.148;2022-08-25T09:56:48;7.63;;;5.68;;
28311;SDS011;15572;48.810;9.148;2022-08-25T10:01:49;6.57;;;5.50;;
28311;SDS011;15572;48.810;9.148;2022-08-25T10:06:46;6.20;;;5.30;;
28311;SDS011;15572;48.810;9.148;2022-08-25T10:11:43;7.00;;;5.90;;
28311;SDS011;15572;48.810;9.148;2022-08-25T10:16:47;6.68;;;6.05;;
28311;SDS011;15572;48.810;9.148;2022-08-25T10:21:45;6.90;;;5.88;;
28311;SDS011;15572;48.810;9.148;2022-08-25T10:26:59;9.52;;;6.07;;
28311;SDS011;15572;48.810;9.148;2022-08-25T10:32:03;7.95;;;6.45;;
28311;SDS011;15572;48.810;9.148;2022-08-25T10:37:19;6.93;;;5.45;;
28311;SDS011;15572;48.810;9.148;2022-08-25T10:42:27;6.55;;;5.95;;
28311;SDS011;15572;48.810;9.148;2022-08-25T10:47:43;6.57;;;5.95;;
28311;SDS011;15572;48.810;9.148;2022-08-25T10:52:54;6.15;;;5.55;;
28311;SDS011;15572;48.810;9.148;2022-08-25T10:58:02;15.68;;;6.20;;
28311;SDS011;15572;48.810;9.148;2022-08-25T11:03:19;11.02;;;5.85;;
28311;SDS011;15572;48.810;9.148;2022-08-25T11:08:30;6.88;;;5.40;;
28311;SDS011;15572;48.810;9.148;2022-08-25T11:13:32;6.75;;;5.43;;
28311;SDS011;15572;48.810;9.148;2022-08-25T11:18:40;9.77;;;6.20;;
28311;SDS011;15572;48.810;9.148;2022-08-25T11:23:46;8.68;;;5.30;;
28311;SDS011;15572;48.810;9.148;2022-08-25T11:28:51;12.95;;;5.68;;
28311;SDS011;15572;48.810;9.148;2022-08-25T11:33:54;8.60;;;5.22;;
28311;SDS011;15572;48.810;9.148;2022-08-25T11:38:54;10.23;;;5.50;;
28311;SDS011;15572;48.810;9.148;2022-08-25T11:44:05;8.77;;;5.05;;
28311;SDS011;15572;48.810;9.148;2022-08-25T11:49:19;6.10;;;4.60;;
28311;SDS011;15572;48.810;9.148;2022-08-25T12:05:01;5.55;;;4.95;;
28311;SDS011;15572;48.810;9.148;2022-08-25T12:10:13;4.40;;;4.00;;
28311;SDS011;15572;48.810;9.148;2022-08-25T12:15:19;4.82;;;4.18;;
28311;SDS011;15572;48.810;9.148;2022-08-25T12:20:19;5.90;;;3.90;;
28311;SDS011;15572;48.810;9.148;2022-08-25T12:25:57;4.93;;;3.75;;
28311;SDS011;15572;48.810;9.148;2022-08-25T12:31:00;6.10;;;3.60;;
28311;SDS011;15572;48.810;9.148;2022-08-25T12:36:03;4.13;;;3.72;;
28311;SDS011;15572;48.810;9.148;2022-08-25T12:41:05;4.30;;;3.45;;
28311;SDS011;15572;48.810;9.148;2022-08-25T12:51:52;11.18;;;4.10;;
28311;SDS011;15572;48.810;9.148;2022-08-25T12:56:54;10.60;;;3.92;;
28311;SDS011;15572;48.810;9.148;2022-08-25T13:02:06;5.15;;;3.55;;
28311;SDS011;15572;48.810;9.148;2022-08-25T13:07:20;9.35;;;3.72;;
28311;SDS011;15572;48.810;9.148;2022-08-25T13:12:29;6.82;;;3.42;;
28311;SDS011;15572;48.810;9.148;2022-08-25T13:17:32;5.45;;;3.20;;
28311;SDS011;15572;48.810;9.148;2022-08-25T13:22:30;2.90;;;2.70;;
28311;SDS011;15572;48.810;9.148;2022-08-25T13:27:28;3.15;;;2.95;;
28311;SDS011;15572;48.810;9.148;2022-08-25T13:32:26;5.22;;;3.15;;
28311;SDS011;15572;48.810;9.148;2022-08-25T13:37:24;3.47;;;2.80;;
28311;SDS011;15572;48.810;9.148;2022-08-25T13:42:23;4.38;;;3.05;;
28311;SDS011;15572;48.810;9.148;2022-08-25T13:47:32;5.40;;;2.92;;
28311;SDS011;15572;48.810;9.148;2022-08-25T13:52:29;4.78;;;3.00;;
28311;SDS011;15572;48.810;9.148;2022-08-25T13:57:27;3.08;;;2.75;;
28311;SDS011;15572;48.810;9.148;2022-08-25T14:02:41;3.15;;;2.70;;
28311;SDS011;15572;48.810;9.148;2022-08-25T14:07:40;2.85;;;2.60;;
28311;SDS011;15572;48.810;9.148;2022-08-25T14:12:47;3.72;;;2.70;;
28311;SDS011;15572;48.810;9.148;2022-08-25T14:18:05;3.00;;;2.80;;
28311;SDS011;15572;48.810;9.148;2022-08-25T14:23:05;3.40;;;3.03;;
28311;SDS011;15572;48.810;9.148;2022-08-25T14:28:04;3.30;;;3.00;;
28311;SDS011;15572;48.810;9.148;2022-08-25T14:33:06;3.28;;;2.97;;
28311;SDS011;15572;48.810;9.148;2022-08-25T14:38:06;3.00;;;2.65;;
28311;SDS011;15572;48.810;9.148;2022-08-25T14:43:05;3.28;;;2.63;;
28311;SDS011;15572;48.810;9.148;2022-08-25T14:48:03;3.72;;;3.00;;
28311;SDS011;15572;48.810;9.148;2022-08-25T14:53:03;5.05;;;3.35;;
28311;SDS011;15572;48.810;9.148;2022-08-25T14:58:00;3.55;;;2.80;;
28311;SDS011;15572;48.810;9.148;2022-08-25T15:02:56;3.65;;;2.80;;
28311;SDS011;15572;48.810;9.148;2022-08-25T15:07:54;3.38;;;2.70;;
28311;SDS011;15572;48.810;9.148;2022-08-25T15:13:08;3.42;;;2.92;;
28311;SDS011;15572;48.810;9.148;2022-08-25T15:18:05;3.50;;;3.15;;
28311;SDS011;15572;48.810;9.148;2022-08-25T15:23:04;3.38;;;3.03;;
28311;SDS011;15572;48.810;9.148;2022-08-25T15:28:02;3.97;;;2.50;;
28311;SDS011;15572;48.810;9.148;2022-08-25T15:33:00;5.30;;;3.38;;
28311;SDS011;15572;48.810;9.148;2022-08-25T15:37:56;8.88;;;3.40;;
28311;SDS011;15572;48.810;9.148;2022-08-25T15:42:54;5.03;;;3.40;;
28311;SDS011;15572;48.810;9.148;2022-08-25T15:47:51;7.53;;;3.05;;
28311;SDS011;15572;48.810;9.148;2022-08-25T15:52:48;6.28;;;3.67;;
28311;SDS011;15572;48.810;9.148;2022-08-25T15:57:45;11.88;;;3.55;;
28311;SDS011;15572;48.810;9.148;2022-08-25T16:02:43;8.57;;;3.60;;
28311;SDS011;15572;48.810;9.148;2022-08-25T16:07:40;6.35;;;3.28;;
28311;SDS011;15572;48.810;9.148;2022-08-25T16:12:36;5.35;;;3.42;;
28311;SDS011;15572;48.810;9.148;2022-08-25T16:17:33;5.45;;;3.13;;
28311;SDS011;15572;48.810;9.148;2022-08-25T16:22:31;4.30;;;3.30;;
28311;SDS011;15572;48.810;9.148;2022-08-25T16:27:28;8.10;;;3.40;;
28311;SDS011;15572;48.810;9.148;2022-08-25T16:32:25;3.17;;;2.90;;
28311;SDS011;15572;48.810;9.148;2022-08-25T16:37:21;3.75;;;3.05;;
28311;SDS011;15572;48.810;9.148;2022-08-25T16:42:19;4.80;;;3.30;;
28311;SDS011;15572;48.810;9.148;2022-08-25T16:47:16;3.22;;;2.90;;
28311;SDS011;15572;48.810;9.148;2022-08-25T16:52:12;8.43;;;3.35;;
28311;SDS011;15572;48.810;9.148;2022-08-25T16:57:29;4.80;;;3.00;;
28311;SDS011;15572;48.810;9.148;2022-08-25T17:02:26;3.28;;;2.97;;
28311;SDS011;15572;48.810;9.148;2022-08-25T17:07:22;3.47;;;2.97;;
28311;SDS011;15572;48.810;9.148;2022-08-25T17:12:18;3.55;;;3.00;;
28311;SDS011;15572;48.810;9.148;2022-08-25T17:17:16;3.23;;;2.93;;
28311;SDS011;15572;48.810;9.148;2022-08-25T17:22:13;6.25;;;3.13;;
28311;SDS011;15572;48.810;9.148;2022-08-25T17:27:10;4.35;;;3.05;;
28311;SDS011;15572;48.810;9.148;2022-08-25T17:32:07;3.15;;;2.85;;
28311;SDS011;15572;48.810;9.148;2022-08-25T17:37:05;4.05;;;3.22;;
28311;SDS011;15572;48.810;9.148;2022-08-25T17:42:02;7.33;;;4.53;;
28311;SDS011;15572;48.810;9.148;2022-08-25T17:46:59;3.90;;;3.10;;
28311;SDS011;15572;48.810;9.148;2022-08-25T17:51:55;3.55;;;3.22;;
28311;SDS011;15572;48.810;9.148;2022-08-25T17:56:54;3.42;;;3.13;;
28311;SDS011;15572;48.810;9.148;2022-08-25T18:01:50;4.80;;;3.70;;
28311;SDS011;15572;48.810;9.148;2022-08-25T18:06:47;4.28;;;3.40;;
28311;SDS011;15572;48.810;9.148;2022-08-25T18:11:43;3.90;;;3.50;;
28311;SDS011;15572;48.810;9.148;2022-08-25T18:16:41;5.60;;;3.90;;
28311;SDS011;15572;48.810;9.148;2022-08-25T18:21:38;6.80;;;3.78;;
28311;SDS011;15572;48.810;9.148;2022-08-25T18:26:34;8.68;;;4.90;;
28311;SDS011;15572;48.810;9.148;2022-08-25T18:31:31;10.23;;;4.60;;
28311;SDS011;15572;48.810;9.148;2022-08-25T18:36:29;5.07;;;4.22;;
28311;SDS011;15572;48.810;9.148;2022-08-25T18:41:28;5.38;;;3.90;;
28311;SDS011;15572;48.810;9.148;2022-08-25T18:46:28;4.53;;;3.80;;
28311;SDS011;15572;48.810;9.148;2022-08-25T18:51:25;3.92;;;3.55;;
28311;SDS011;15572;48.810;9.148;2022-08-25T18:56:23;8.48;;;3.95;;
28311;SDS011;15572;48.810;9.148;2022-08-25T19:01:20;3.92;;;3.53;;
28311;SDS011;15572;48.810;9.148;2022-08-25T19:06:17;5.85;;;3.67;;
28311;SDS011;15572;48.810;9.148;2022-08-25T19:11:14;6.43;;;3.60;;
28311;SDS011;15572;48.810;9.148;2022-08-25T19:16:13;5.60;;;4.28;;
28311;SDS011;15572;48.810;9.148;2022-08-25T19:21:13;7.05;;;4.25;;
28311;SDS011;15572;48.810;9.148;2022-08-25T19:26:09;4.95;;;4.30;;
28311;SDS011;15572;48.810;9.148;2022-08-25T19:31:06;8.93;;;4.30;;
28311;SDS011;15572;48.810;9.148;2022-08-25T19:36:04;6.50;;;4.72;;
28311;SDS011;15572;48.810;9.148;2022-08-25T19:41:01;6.82;;;4.75;;
28311;SDS011;15572;48.810;9.148;2022-08-25T19:45:59;8.20;;;5.55;;
28311;SDS011;15572;48.810;9.148;2022-08-25T19:50:56;8.43;;;5.07;;
28311;SDS011;15572;48.810;9.148;2022-08-25T19:55:54;7.95;;;4.85;;
28311;SDS011;15572;48.810;9.148;2022-08-25T20:00:53;7.50;;;5.10;;
28311;SDS011;15572;48.810;9.148;2022-08-25T20:05:50;6.28;;;4.90;;
28311;SDS011;15572;48.810;9.148;2022-08-25T20:10:46;7.15;;;4.97;;
28311;SDS011;15572;48.810;9.148;2022-08-25T20:15:44;6.38;;;4.80;;
28311;SDS011;15572;48.810;9.148;2022-08-25T20:20:41;8.65;;;4.95;;
28311;SDS011;15572;48.810;9.148;2022-08-25T20:25:37;7.60;;;5.00;;
28311;SDS011;15572;48.810;9.148;2022-08-25T20:30:36;7.82;;;5.05;;
28311;SDS011;15572;48.810;9.148;2022-08-25T20:35:35;7.45;;;5.22;;
28311;SDS011;15572;48.810;9.148;2022-08-25T20:40:31;8.63;;;4.93;;
28311;SDS011;15572;48.810;9.148;2022-08-25T20:45:27;6.60;;;5.07;;
28311;SDS011;15572;48.810;9.148;2022-08-25T20:50:24;5.63;;;4.82;;
28311;SDS011;15572;48.810;9.148;2022-08-25T20:55:22;7.30;;;4.90;;
28311;SDS011;15572;48.810;9.148;2022-08-25T21:00:19;7.20;;;4.85;;
28311;SDS011;15572;48.810;9.148;2022-08-25T21:05:16;4.90;;;4.50;;
28311;SDS011;15572;48.810;9.148;2022-08-25T21:10:13;5.63;;;4.57;;
28311;SDS011;15572;48.810;9.148;2022-08-25T21:15:12;7.40;;;5.13;;
28311;SDS011;15572;48.810;9.148;2022-08-25T21:20:09;5.80;;;5.13;;
28311;SDS011;15572;48.810;9.148;2022-08-25T21:25:06;5.72;;;4.70;;
28311;SDS011;15572;48.810;9.148;2022-08-25T21:30:04;6.80;;;4.90;;
28311;SDS011;15572;48.810;9.148;2022-08-25T21:35:03;6.47;;;4.93;;
28311;SDS011;15572;48.810;9.148;2022-08-25T21:40:01;5.82;;;5.20;;
28311;SDS011;15572;48.810;9.148;2022-08-25T21:44:58;7.50;;;5.35;;
28311;SDS011;15572;48.810;9.148;2022-08-25T21:49:54;8.45;;;5.55;;
28311;SDS011;15572;48.810;9.148;2022-08-25T21:54:52;7.90;;;5.50;;
28311;SDS011;15572;48.810;9.148;2022-08-25T21:59:49;9.02;;;5.35;;
28311;SDS011;15572;48.810;9.148;2022-08-25T22:04:45;6.43;;;5.60;;
28311;SDS011;15572;48.810;9.148;2022-08-25T22:09:45;7.60;;;5.05;;
28311;SDS011;15572;48.810;9.148;2022-08-25T22:14:43;6.53;;;5.32;;
28311;SDS011;15572;48.810;9.148;2022-08-25T22:19:39;7.15;;;5.72;;
28311;SDS011;15572;48.810;9.148;2022-08-25T22:24:36;7.55;;;5.32;;
28311;SDS011;15572;48.810;9.148;2022-08-25T22:29:32;7.63;;;6.00;;
28311;SDS011;15572;48.810;9.148;2022-08-25T22:34:31;7.30;;;5.80;;
28311;SDS011;15572;48.810;9.148;2022-08-25T22:39:28;7.38;;;5.80;;
28311;SDS011;15572;48.810;9.148;2022-08-25T22:44:26;5.68;;;5.10;;
28311;SDS011;15572;48.810;9.148;2022-08-25T22:49:22;6.55;;;5.07;;
28311;SDS011;15572;48.810;9.148;2022-08-25T22:54:20;6.05;;;4.97;;
28311;SDS011;15572;48.810;9.148;2022-08-25T22:59:16;5.38;;;4.82;;
28311;SDS011;15572;48.810;9.148;2022-08-25T23:04:13;6.35;;;5.53;;
28311;SDS011;15572;48.810;9.148;2022-08-25T23:09:10;6.40;;;5.43;;
28311;SDS011;15572;48.810;9.148;2022-08-25T23:14:07;6.30;;;5.40;;
28311;SDS011;15572;48.810;9.148;2022-08-25T23:19:05;6.20;;;4.78;;
28311;SDS011;15572;48.810;9.148;2022-08-25T23:24:02;8.38;;;5.72;;
28311;SDS011;15572;48.810;9.148;2022-08-25T23:28:59;6.40;;;5.50;;
28311;SDS011;15572;48.810;9.148;2022-08-25T23:33:57;6.07;;;5.47;;
28311;SDS011;15572;48.810;9.148;2022-08-25T23:38:54;6.70;;;5.65;;
28311;SDS011;15572;48.810;9.148;2022-08-25T23:43:51;9.70;;;5.55;;
28311;SDS011;15572;48.810;9.148;2022-08-25T23:48:48;6.00;;;5.28;;
28311;SDS011;15572;48.810;9.148;2022-08-25T23:53:47;7.38;;;5.68;;
28311;SDS011;15572;48.810;9.148;2022-08-25T23:58:44;6.80;;;5.82;;
